FANG11 LCRA-EGVA
Flight info
| Callsign | FANG11 |
|---|---|
| Flight time | N/A |
| Altitude | 47000 |
| Route | PHA DCT CLD DCT FSK DCT BUI DCT KIS DCT LBL DCT SUL DCT BNE DCT CPT |
| Aircraft | EUFI/M-SDGHITUY/LB1 |
Departure
| Time | 2026-04-21 18:40 |
|---|---|
| Airport | RAF Akrotiri (LCRA) |
Arrival
| Time | N/A |
|---|---|
| Airport | RAF Fairford (EGVA) |
| Time | Latitude | Longitude | Altitude | Speed | Heading |
|---|---|---|---|---|---|
| 2026-04-21 18:28 | 34.59091 | 32.97398 | 78 ft | 0 kts | 278° |
| 2026-04-21 18:38 | 34.59093 | 32.97397 | 78 ft | 1 kts | 346° |
| 2026-04-21 18:38 | 34.59109 | 32.97408 | 75 ft | 8 kts | 22° |
| 2026-04-21 18:38 | 34.59181 | 32.97435 | 78 ft | 10 kts | 4° |
| 2026-04-21 18:39 | 34.59226 | 32.97400 | 78 ft | 6 kts | 309° |
| 2026-04-21 18:39 | 34.59271 | 32.97363 | 78 ft | 10 kts | 328° |
| 2026-04-21 18:39 | 34.59362 | 32.97346 | 79 ft | 18 kts | 16° |
| 2026-04-21 18:39 | 34.59384 | 32.97460 | 71 ft | 0 kts | 108° |
| 2026-04-21 18:40 | 34.59384 | 32.97461 | 71 ft | 2 kts | 108° |
| 2026-04-21 18:40 | 34.59102 | 32.98466 | 120 ft | 255 kts | 109° |
| 2026-04-21 18:40 | 34.58389 | 33.01560 | 1783 ft | 323 kts | 97° |
| 2026-04-21 18:40 | 34.58046 | 33.02684 | 11685 ft | 336 kts | 144° |
| 2026-04-21 18:41 | 34.57221 | 33.02847 | 1884 ft | 510 kts | 299° |
| 2026-04-21 18:41 | 34.58914 | 32.98885 | 317 ft | 495 kts | 294° |
| 2026-04-21 18:41 | 34.58042 | 32.95566 | 3094 ft | 329 kts | 251° |
| 2026-04-21 18:41 | 34.58921 | 32.95590 | 3093 ft | 209 kts | 41° |
| 2026-04-21 18:42 | 34.59355 | 32.97545 | 164 ft | 300 kts | 109° |
| 2026-04-21 18:42 | 34.58587 | 33.00315 | 248 ft | 454 kts | 128° |
| 2026-04-21 18:42 | 34.55150 | 33.01256 | 1593 ft | 612 kts | 178° |
| 2026-04-21 18:42 | 34.50941 | 33.01538 | 2571 ft | 535 kts | 176° |
| 2026-04-21 18:43 | 34.47325 | 33.01940 | 3585 ft | 595 kts | 175° |
| 2026-04-21 18:43 | 34.42991 | 33.02304 | 4622 ft | 629 kts | 181° |
| 2026-04-21 18:43 | 34.38782 | 33.01181 | 6324 ft | 640 kts | 204° |
| 2026-04-21 18:43 | 34.35121 | 32.98122 | 7100 ft | 645 kts | 229° |
| 2026-04-21 18:44 | 34.33050 | 32.93379 | 7986 ft | 646 kts | 260° |
| 2026-04-21 18:44 | 34.33385 | 32.87960 | 9712 ft | 659 kts | 290° |
| 2026-04-21 18:44 | 34.36037 | 32.83427 | 11291 ft | 674 kts | 322° |
| 2026-04-21 18:44 | 34.40397 | 32.81341 | 12750 ft | 691 kts | 356° |
| 2026-04-21 18:45 | 34.45035 | 32.82814 | 14001 ft | 713 kts | 34° |
| 2026-04-21 18:45 | 34.47864 | 32.87598 | 14839 ft | 732 kts | 76° |
| 2026-04-21 18:45 | 34.47161 | 32.93576 | 15421 ft | 740 kts | 124° |
| 2026-04-21 18:45 | 34.43006 | 32.96924 | 15737 ft | 735 kts | 175° |
| 2026-04-21 18:46 | 34.38364 | 32.95043 | 15903 ft | 720 kts | 229° |
| 2026-04-21 18:46 | 34.36943 | 32.89509 | 16058 ft | 711 kts | 283° |
| 2026-04-21 18:46 | 34.39619 | 32.85235 | 16217 ft | 649 kts | 338° |
| 2026-04-21 18:46 | 34.44022 | 32.85764 | 16475 ft | 666 kts | 25° |
| 2026-04-21 18:47 | 34.48330 | 32.87963 | 18422 ft | 678 kts | 17° |
| 2026-04-21 18:47 | 34.52964 | 32.89120 | 20414 ft | 688 kts | 1° |
| 2026-04-21 18:47 | 34.57734 | 32.88721 | 22568 ft | 688 kts | 346° |
| 2026-04-21 18:47 | 34.62351 | 32.86907 | 24642 ft | 704 kts | 341° |
| 2026-04-21 18:48 | 34.67108 | 32.85476 | 26623 ft | 722 kts | 346° |
| 2026-04-21 18:48 | 34.71981 | 32.83775 | 28804 ft | 737 kts | 336° |
| 2026-04-21 18:48 | 34.76944 | 32.81835 | 30788 ft | 763 kts | 352° |
| 2026-04-21 18:48 | 34.82276 | 32.82679 | 32154 ft | 797 kts | 21° |
| 2026-04-21 18:49 | 34.86845 | 32.86658 | 33580 ft | 823 kts | 39° |
| 2026-04-21 18:49 | 34.91377 | 32.91072 | 35580 ft | 845 kts | 35° |
| 2026-04-21 18:49 | 34.94465 | 32.94069 | 36959 ft | 865 kts | 36° |
| 2026-04-21 18:49 | 35.00775 | 33.00376 | 39723 ft | 905 kts | 37° |
| 2026-04-21 18:50 | 35.05702 | 33.05370 | 41724 ft | 937 kts | 37° |
| 2026-04-21 18:50 | 35.10831 | 33.10582 | 43245 ft | 970 kts | 37° |
| 2026-04-21 18:50 | 35.15975 | 33.15817 | 43169 ft | 969 kts | 37° |
| 2026-04-21 18:51 | 35.26323 | 33.26379 | 43034 ft | 964 kts | 37° |
| 2026-04-21 18:51 | 35.36584 | 33.36874 | 43025 ft | 965 kts | 37° |
| 2026-04-21 18:52 | 35.46904 | 33.47449 | 43025 ft | 966 kts | 37° |
| 2026-04-21 18:52 | 35.58084 | 33.56124 | 43101 ft | 952 kts | 18° |
| 2026-04-21 18:52 | 35.64402 | 33.58456 | 43105 ft | 943 kts | 7° |
| 2026-04-21 18:53 | 35.70897 | 33.59112 | 43056 ft | 929 kts | 354° |
| 2026-04-21 18:53 | 35.77262 | 33.57960 | 43053 ft | 917 kts | 341° |
| 2026-04-21 18:53 | 35.83091 | 33.55184 | 43071 ft | 907 kts | 328° |
| 2026-04-21 18:53 | 35.88237 | 33.50750 | 43971 ft | 908 kts | 315° |
| 2026-04-21 18:54 | 35.92525 | 33.44937 | 45177 ft | 919 kts | 303° |
| 2026-04-21 18:54 | 35.95789 | 33.38058 | 46322 ft | 929 kts | 292° |
| 2026-04-21 18:54 | 35.97858 | 33.30550 | 47453 ft | 942 kts | 281° |
| 2026-04-21 18:54 | 35.98728 | 33.22447 | 48604 ft | 957 kts | 271° |
| 2026-04-21 18:55 | 35.98606 | 33.16972 | 49357 ft | 967 kts | 264° |
| 2026-04-21 18:55 | 35.96707 | 33.06096 | 50882 ft | 990 kts | 251° |
| 2026-04-21 18:55 | 35.93871 | 32.98279 | 52022 ft | 1005 kts | 241° |
| 2026-04-21 18:55 | 35.89950 | 32.91037 | 52919 ft | 1023 kts | 232° |
| 2026-04-21 18:56 | 35.85083 | 32.84486 | 53115 ft | 1043 kts | 224° |
| 2026-04-21 18:56 | 35.73023 | 32.74468 | 53123 ft | 1054 kts | 206° |
| 2026-04-21 18:57 | 35.58981 | 32.69525 | 54029 ft | 1072 kts | 188° |
| 2026-04-21 18:57 | 35.51438 | 32.69113 | 54266 ft | 1095 kts | 179° |
| 2026-04-21 18:57 | 35.43830 | 32.70194 | 54187 ft | 1102 kts | 170° |
| 2026-04-21 18:58 | 35.29487 | 32.76772 | 54137 ft | 1117 kts | 152° |
| 2026-04-21 18:58 | 35.17264 | 32.88625 | 54124 ft | 1130 kts | 133° |
| 2026-04-21 18:59 | 35.08409 | 33.04488 | 54134 ft | 1139 kts | 116° |
| 2026-04-21 18:59 | 35.03686 | 33.22839 | 54124 ft | 1143 kts | 98° |
| 2026-04-21 19:00 | 35.03455 | 33.42215 | 54121 ft | 1143 kts | 81° |
| 2026-04-21 19:00 | 35.07687 | 33.60755 | 54125 ft | 1140 kts | 64° |
| 2026-04-21 19:01 | 35.15969 | 33.77067 | 54139 ft | 1132 kts | 47° |
| 2026-04-21 19:01 | 35.27607 | 33.89900 | 54145 ft | 1121 kts | 31° |
| 2026-04-21 19:02 | 35.41472 | 33.98190 | 54143 ft | 1108 kts | 14° |
| 2026-04-21 19:02 | 35.56500 | 34.01451 | 54336 ft | 1097 kts | 358° |
| 2026-04-21 19:02 | 35.64154 | 34.01131 | 54482 ft | 1093 kts | 350° |
| 2026-04-21 19:03 | 35.71647 | 33.99529 | 54641 ft | 1088 kts | 342° |
| 2026-04-21 19:03 | 35.78853 | 33.96696 | 54789 ft | 1084 kts | 335° |
| 2026-04-21 19:03 | 35.85585 | 33.92747 | 54943 ft | 1080 kts | 327° |
| 2026-04-21 19:03 | 35.91876 | 33.87680 | 55095 ft | 1076 kts | 320° |
| 2026-04-21 19:04 | 35.98169 | 33.82629 | 55110 ft | 1086 kts | 333° |
| 2026-04-21 19:04 | 36.05349 | 33.79571 | 55035 ft | 1095 kts | 347° |
| 2026-04-21 19:04 | 36.12946 | 33.78729 | 54985 ft | 1107 kts | 1° |
| 2026-04-21 19:04 | 36.20600 | 33.80105 | 54960 ft | 1118 kts | 14° |
| 2026-04-21 19:05 | 36.27786 | 33.83540 | 54961 ft | 1129 kts | 26° |
| 2026-04-21 19:05 | 36.34358 | 33.88941 | 54976 ft | 1139 kts | 39° |
| 2026-04-21 19:05 | 36.39919 | 33.96019 | 55021 ft | 1147 kts | 52° |
| 2026-04-21 19:05 | 36.44194 | 34.04387 | 55070 ft | 1153 kts | 64° |
| 2026-04-21 19:06 | 36.47052 | 34.13725 | 55136 ft | 1158 kts | 73° |
| 2026-04-21 19:06 | 36.49712 | 34.23148 | 55252 ft | 1156 kts | 64° |
| 2026-04-21 19:06 | 36.53242 | 34.32141 | 55360 ft | 1158 kts | 63° |
| 2026-04-21 19:07 | 36.58394 | 34.50957 | 55623 ft | 1165 kts | 81° |
| 2026-04-21 19:07 | 36.59044 | 34.61063 | 55721 ft | 1168 kts | 95° |
| 2026-04-21 19:07 | 36.57231 | 34.70805 | 54773 ft | 1153 kts | 120° |
| 2026-04-21 19:07 | 36.52699 | 34.78863 | 54061 ft | 1127 kts | 138° |
| 2026-04-21 19:08 | 36.46618 | 34.84651 | 53658 ft | 1108 kts | 156° |
| 2026-04-21 19:08 | 36.39414 | 34.87829 | 53642 ft | 1092 kts | 174° |
| 2026-04-21 19:08 | 36.31871 | 34.88167 | 53713 ft | 1083 kts | 191° |
| 2026-04-21 19:08 | 36.24635 | 34.85724 | 53803 ft | 1079 kts | 208° |
| 2026-04-21 19:09 | 36.18339 | 34.80777 | 53894 ft | 1066 kts | 225° |
| 2026-04-21 19:09 | 36.13600 | 34.73923 | 54018 ft | 1059 kts | 241° |
| 2026-04-21 19:09 | 36.10648 | 34.65610 | 54165 ft | 1056 kts | 257° |
| 2026-04-21 19:09 | 36.09738 | 34.56624 | 54274 ft | 1057 kts | 273° |
| 2026-04-21 19:10 | 36.10894 | 34.47656 | 54357 ft | 1061 kts | 288° |
| 2026-04-21 19:10 | 36.13953 | 34.39468 | 54425 ft | 1068 kts | 303° |
| 2026-04-21 19:10 | 36.18759 | 34.32428 | 54475 ft | 1078 kts | 317° |
| 2026-04-21 19:10 | 36.24939 | 34.27121 | 54525 ft | 1089 kts | 332° |
| 2026-04-21 19:11 | 36.32105 | 34.23878 | 54574 ft | 1102 kts | 346° |
| 2026-04-21 19:11 | 36.39791 | 34.22925 | 54608 ft | 1115 kts | 0° |
| 2026-04-21 19:11 | 36.47412 | 34.24298 | 54645 ft | 1127 kts | 14° |
| 2026-04-21 19:11 | 36.54729 | 34.27964 | 54664 ft | 1139 kts | 28° |
| 2026-04-21 19:12 | 36.59126 | 34.31548 | 54669 ft | 1145 kts | 37° |
| 2026-04-21 19:12 | 36.66416 | 34.41141 | 54672 ft | 1156 kts | 56° |
| 2026-04-21 19:12 | 36.70183 | 34.50000 | 54674 ft | 1161 kts | 70° |
| 2026-04-21 19:12 | 36.72222 | 34.59729 | 54666 ft | 1164 kts | 83° |
| 2026-04-21 19:13 | 36.72410 | 34.69812 | 54649 ft | 1164 kts | 97° |
| 2026-04-21 19:13 | 36.70714 | 34.79703 | 54639 ft | 1161 kts | 111° |
| 2026-04-21 19:13 | 36.67234 | 34.88762 | 54617 ft | 1155 kts | 126° |
| 2026-04-21 19:13 | 36.62267 | 34.96379 | 54611 ft | 1147 kts | 139° |
| 2026-04-21 19:14 | 36.55952 | 35.02416 | 54462 ft | 1135 kts | 153° |
| 2026-04-21 19:14 | 36.48760 | 35.06320 | 54360 ft | 1120 kts | 168° |
| 2026-04-21 19:14 | 36.41154 | 35.08221 | 54405 ft | 1116 kts | 169° |
| 2026-04-21 19:14 | 36.33688 | 35.11049 | 54594 ft | 1128 kts | 159° |
| 2026-04-21 19:15 | 36.26755 | 35.15402 | 54684 ft | 1137 kts | 149° |
| 2026-04-21 19:15 | 36.14892 | 35.28508 | 54702 ft | 1153 kts | 129° |
| 2026-04-21 19:15 | 36.10456 | 35.36834 | 54708 ft | 1159 kts | 118° |
| 2026-04-21 19:16 | 36.07233 | 35.45989 | 54702 ft | 1163 kts | 108° |
| 2026-04-21 19:16 | 36.04759 | 35.65609 | 54698 ft | 1166 kts | 88° |
| 2026-04-21 19:17 | 36.10690 | 35.94395 | 54654 ft | 1161 kts | 65° |
| 2026-04-21 19:17 | 36.17678 | 36.12397 | 54648 ft | 1158 kts | 57° |
| 2026-04-21 19:18 | 36.27558 | 36.28001 | 54710 ft | 1150 kts | 42° |